createdAt,value
2019-05-20T00:01:38.218Z,16.40
2019-05-20T00:03:39.482Z,16.40
2019-05-20T00:05:40.808Z,16.50
2019-05-20T00:07:42.180Z,16.40
2019-05-20T00:09:43.525Z,16.40
2019-05-20T00:11:44.916Z,16.50
2019-05-20T00:13:46.181Z,16.40
2019-05-20T00:15:47.464Z,16.40
2019-05-20T00:17:48.742Z,16.30
2019-05-20T00:19:50.793Z,16.30
2019-05-20T00:21:52.241Z,16.20
2019-05-20T00:23:53.513Z,16.20
2019-05-20T00:25:54.838Z,15.90
2019-05-20T00:27:56.253Z,15.60
2019-05-20T00:29:57.618Z,15.60
2019-05-20T00:31:58.993Z,15.80
2019-05-20T00:34:00.379Z,15.90
2019-05-20T00:36:01.787Z,15.90
2019-05-20T00:38:03.337Z,15.90
2019-05-20T00:40:07.023Z,16.00
2019-05-20T00:42:08.277Z,15.90
2019-05-20T00:44:09.567Z,15.90
2019-05-20T00:46:10.870Z,15.80
2019-05-20T00:48:12.248Z,15.80
2019-05-20T00:50:13.634Z,15.50
2019-05-20T00:52:15.006Z,15.10
2019-05-20T00:54:16.450Z,14.70
2019-05-20T00:56:17.840Z,14.50
2019-05-20T00:58:19.115Z,14.60
2019-05-20T01:00:20.618Z,14.80
2019-05-20T01:02:21.955Z,15.10
2019-05-20T01:04:23.238Z,15.20
2019-05-20T01:06:24.518Z,15.30
2019-05-20T01:08:25.884Z,15.30
2019-05-20T01:10:27.165Z,15.30
2019-05-20T01:12:28.474Z,15.30
2019-05-20T01:14:29.790Z,15.30
2019-05-20T01:16:31.417Z,15.30
2019-05-20T01:18:32.941Z,15.30
2019-05-20T01:20:35.466Z,15.30
2019-05-20T01:22:37.124Z,14.90
2019-05-20T01:24:38.603Z,14.30
2019-05-20T01:26:39.956Z,14.10
2019-05-20T01:28:41.221Z,14.40
2019-05-20T01:30:42.501Z,14.60
2019-05-20T01:32:44.067Z,14.70
2019-05-20T01:34:45.213Z,14.80
2019-05-20T01:36:46.489Z,14.90
2019-05-20T01:38:47.771Z,15.00
2019-05-20T01:40:49.041Z,15.00
2019-05-20T01:42:50.374Z,14.70
2019-05-20T01:44:51.985Z,14.20
2019-05-20T01:46:53.137Z,14.10
2019-05-20T01:48:54.419Z,14.10
2019-05-20T01:50:55.787Z,14.20
2019-05-20T01:52:57.109Z,14.30
2019-05-20T01:54:58.658Z,14.50
2019-05-20T01:56:59.934Z,14.50
2019-05-20T01:59:01.204Z,14.40
2019-05-20T02:01:02.482Z,14.40
2019-05-20T02:03:03.758Z,14.50
2019-05-20T02:05:05.825Z,14.70
2019-05-20T02:07:07.121Z,14.70
2019-05-20T02:09:08.390Z,14.70
2019-05-20T02:11:09.675Z,14.70
2019-05-20T02:13:11.049Z,14.70
2019-05-20T02:15:23.374Z,14.70
2019-05-20T02:17:24.740Z,14.60
2019-05-20T02:19:26.046Z,14.60
2019-05-20T02:21:27.420Z,14.50
2019-05-20T02:23:28.671Z,14.50
2019-05-20T02:25:29.946Z,14.40
2019-05-20T02:27:31.330Z,14.50
2019-05-20T02:29:32.620Z,14.50
2019-05-20T02:31:33.976Z,14.40
2019-05-20T02:33:50.702Z,14.40
2019-05-20T02:35:38.447Z,14.30
2019-05-20T02:37:40.079Z,14.30
2019-05-20T02:39:41.228Z,14.30
2019-05-20T02:41:42.500Z,14.20
2019-05-20T02:43:43.934Z,14.20
2019-05-20T02:45:45.225Z,14.10
2019-05-20T02:47:46.500Z,14.10
2019-05-20T02:49:47.961Z,13.70
2019-05-20T02:51:49.238Z,13.30
2019-05-20T02:53:50.504Z,12.90
2019-05-20T02:55:51.775Z,12.80
2019-05-20T02:57:53.063Z,12.70
2019-05-20T02:59:54.438Z,12.80
2019-05-20T03:01:55.710Z,13.10
2019-05-20T03:04:10.638Z,13.30
2019-05-20T03:06:00.161Z,13.50
2019-05-20T03:08:01.573Z,13.60
2019-05-20T03:10:04.256Z,13.70
2019-05-20T03:12:06.541Z,13.90
2019-05-20T03:14:08.017Z,13.90
2019-05-20T03:16:09.371Z,13.90
2019-05-20T03:18:10.760Z,13.90
2019-05-20T03:20:12.220Z,13.90
2019-05-20T03:22:13.493Z,13.80
2019-05-20T03:24:14.802Z,13.80
2019-05-20T03:26:16.081Z,13.80
2019-05-20T03:28:17.341Z,13.80
2019-05-20T03:30:18.618Z,13.70
2019-05-20T03:32:19.891Z,13.70
2019-05-20T03:34:43.992Z,13.70
2019-05-20T03:36:24.346Z,13.80
2019-05-20T03:38:25.611Z,13.70
2019-05-20T03:40:27.006Z,13.70
2019-05-20T03:42:29.287Z,13.80
2019-05-20T03:44:32.028Z,13.70
2019-05-20T03:46:33.354Z,13.70
2019-05-20T03:48:35.658Z,13.60
2019-05-20T03:50:36.921Z,13.60
2019-05-20T03:52:38.191Z,13.70
2019-05-20T03:54:39.461Z,13.80
2019-05-20T03:56:40.739Z,13.80
2019-05-20T03:58:42.039Z,13.80
2019-05-20T04:00:45.129Z,13.80
2019-05-20T04:02:46.505Z,13.60
2019-05-20T04:05:01.312Z,13.40
2019-05-20T04:06:51.011Z,13.20
2019-05-20T04:08:52.344Z,13.20
2019-05-20T04:10:53.622Z,13.30
2019-05-20T04:12:54.889Z,13.30
2019-05-20T04:14:56.162Z,13.40
2019-05-20T04:16:57.467Z,13.60
2019-05-20T04:18:58.723Z,13.70
2019-05-20T04:20:59.999Z,13.80
2019-05-20T04:23:01.599Z,13.80
2019-05-20T04:25:05.414Z,13.80
2019-05-20T04:27:07.932Z,13.80
2019-05-20T04:29:09.444Z,13.80
2019-05-20T04:31:10.802Z,13.80
2019-05-20T04:33:12.399Z,13.70
2019-05-20T04:35:22.248Z,13.60
2019-05-20T04:37:30.474Z,13.60
2019-05-20T04:39:31.724Z,13.30
2019-05-20T04:41:35.802Z,13.10
2019-05-20T04:43:36.855Z,13.00
2019-05-20T04:45:39.491Z,12.90
2019-05-20T04:47:40.801Z,12.80
2019-05-20T04:49:42.072Z,12.90
2019-05-20T04:51:43.677Z,12.80
2019-05-20T04:53:44.935Z,12.60
2019-05-20T04:55:46.507Z,12.70
2019-05-20T04:57:47.799Z,12.80
2019-05-20T04:59:49.436Z,12.90
2019-05-20T05:01:50.751Z,13.10
2019-05-20T05:03:52.569Z,13.40
2019-05-20T05:05:54.358Z,13.60
2019-05-20T05:07:55.792Z,13.70
2019-05-20T05:09:57.318Z,13.80
2019-05-20T05:11:58.609Z,13.90
2019-05-20T05:13:59.903Z,13.80
2019-05-20T05:16:01.526Z,13.70
2019-05-20T05:18:02.801Z,13.60
2019-05-20T05:20:04.695Z,13.70
2019-05-20T05:22:06.063Z,13.70
2019-05-20T05:24:07.471Z,13.60
2019-05-20T05:26:08.834Z,13.50
2019-05-20T05:28:10.142Z,13.50
2019-05-20T05:30:11.547Z,13.40
2019-05-20T05:32:12.902Z,13.30
2019-05-20T05:34:14.279Z,13.40
2019-05-20T05:36:15.555Z,13.30
2019-05-20T05:38:16.856Z,13.30
2019-05-20T05:40:22.219Z,13.20
2019-05-20T05:42:23.548Z,13.10
2019-05-20T05:44:25.157Z,13.20
2019-05-20T05:46:26.435Z,13.30
2019-05-20T05:48:27.742Z,13.20
2019-05-20T05:50:29.819Z,13.30
2019-05-20T05:52:31.685Z,13.50
2019-05-20T05:54:32.957Z,13.50
2019-05-20T05:56:34.263Z,13.50
2019-05-20T05:58:35.636Z,13.30
2019-05-20T06:00:36.904Z,13.40
2019-05-20T06:02:38.179Z,13.40
2019-05-20T06:04:39.459Z,13.40
2019-05-20T06:06:40.774Z,13.60
2019-05-20T06:08:43.475Z,13.70
2019-05-20T06:10:44.817Z,13.80
2019-05-20T06:12:46.366Z,13.70
2019-05-20T06:14:48.994Z,13.70
2019-05-20T06:16:50.430Z,13.70
2019-05-20T06:18:51.973Z,13.80
2019-05-20T06:20:53.565Z,13.80
2019-05-20T06:22:54.838Z,13.90
2019-05-20T06:24:56.179Z,14.00
2019-05-20T06:26:57.452Z,14.10
2019-05-20T06:28:58.735Z,14.20
2019-05-20T06:31:00.004Z,14.10
2019-05-20T06:33:01.279Z,14.30
2019-05-20T06:35:04.589Z,14.40
2019-05-20T06:37:08.141Z,14.50
2019-05-20T06:39:10.638Z,14.50
2019-05-20T06:41:12.128Z,14.30
2019-05-20T06:43:13.653Z,14.40
2019-05-20T06:45:15.158Z,14.40
2019-05-20T06:47:16.565Z,14.20
2019-05-20T06:49:17.857Z,14.10
2019-05-20T06:51:19.130Z,14.10
2019-05-20T06:53:20.625Z,14.10
2019-05-20T06:55:21.930Z,14.20
2019-05-20T06:57:24.003Z,14.40
2019-05-20T06:59:25.388Z,14.60
2019-05-20T07:01:27.047Z,14.60
2019-05-20T07:03:28.198Z,14.60
2019-05-20T07:05:29.499Z,14.50
2019-05-20T07:07:30.824Z,14.40
2019-05-20T07:09:32.127Z,14.60
2019-05-20T07:11:33.437Z,14.70
2019-05-20T07:13:34.814Z,14.60
2019-05-20T07:15:36.135Z,14.50
2019-05-20T07:17:37.841Z,14.50
2019-05-20T07:19:39.473Z,14.50
2019-05-20T07:21:40.635Z,14.50
2019-05-20T07:23:42.006Z,14.50
2019-05-20T07:25:43.649Z,14.50
2019-05-20T07:27:45.357Z,14.60
2019-05-20T07:29:46.677Z,14.60
2019-05-20T07:31:48.207Z,14.50
2019-05-20T07:33:49.517Z,14.50
2019-05-20T07:35:51.140Z,14.60
2019-05-20T07:37:52.431Z,14.80
2019-05-20T07:39:53.710Z,14.80
2019-05-20T07:41:55.019Z,14.80
2019-05-20T07:43:56.732Z,14.80
2019-05-20T07:46:00.079Z,14.90
2019-05-20T07:48:02.290Z,15.00
2019-05-20T07:50:05.248Z,15.00
2019-05-20T07:52:06.771Z,15.20
2019-05-20T07:54:08.239Z,15.20
2019-05-20T07:56:22.606Z,15.10
2019-05-20T07:58:26.168Z,15.10
2019-05-20T08:00:28.037Z,15.00
2019-05-20T08:02:29.663Z,14.90
2019-05-20T08:04:30.848Z,15.10
2019-05-20T08:06:32.231Z,15.40
2019-05-20T08:08:33.546Z,15.60
2019-05-20T08:10:35.118Z,15.60
2019-05-20T08:12:36.393Z,15.80
2019-05-20T08:14:37.991Z,15.90
2019-05-20T08:16:39.298Z,16.00
2019-05-20T08:18:40.559Z,16.20
2019-05-20T08:20:41.827Z,16.10
2019-05-20T08:22:43.401Z,16.20
2019-05-20T08:24:44.639Z,16.10
2019-05-20T08:26:46.210Z,16.00
2019-05-20T08:28:47.987Z,16.20
2019-05-20T08:30:49.525Z,16.00
2019-05-20T08:32:51.046Z,16.10
2019-05-20T08:34:52.320Z,16.50
2019-05-20T08:36:53.612Z,16.90
2019-05-20T08:38:54.957Z,17.00
2019-05-20T08:40:56.729Z,17.10
2019-05-20T08:42:58.155Z,17.30
2019-05-20T08:44:59.518Z,17.60
2019-05-20T08:47:00.791Z,17.70
2019-05-20T08:49:02.327Z,17.90
2019-05-20T08:51:03.805Z,18.00
2019-05-20T08:53:05.086Z,18.20
2019-05-20T08:55:07.114Z,18.10
2019-05-20T08:57:08.786Z,18.10
2019-05-20T08:59:10.440Z,17.80
2019-05-20T09:01:12.507Z,17.70
2019-05-20T09:03:14.217Z,17.50
2019-05-20T09:05:15.654Z,17.50
2019-05-20T09:07:17.281Z,17.50
2019-05-20T09:09:18.756Z,17.60
2019-05-20T09:11:20.203Z,17.60
2019-05-20T09:13:21.765Z,17.70
2019-05-20T09:15:22.923Z,17.30
2019-05-20T09:17:24.614Z,17.10
2019-05-20T09:19:25.958Z,17.00
2019-05-20T09:21:27.638Z,17.00
2019-05-20T09:23:29.121Z,17.00
2019-05-20T09:25:31.390Z,17.40
2019-05-20T09:27:32.793Z,17.70
2019-05-20T09:29:37.867Z,17.80
2019-05-20T09:31:38.250Z,17.80
2019-05-20T09:33:39.614Z,17.80
2019-05-20T09:35:41.014Z,17.40
2019-05-20T09:37:42.611Z,17.40
2019-05-20T09:39:43.991Z,17.60
2019-05-20T09:41:45.322Z,17.70
2019-05-20T09:43:46.623Z,17.60
2019-05-20T09:46:04.180Z,17.50
2019-05-20T09:47:52.168Z,17.60
2019-05-20T09:49:53.445Z,17.70
2019-05-20T09:51:55.022Z,17.80
2019-05-20T09:53:56.761Z,18.00
2019-05-20T09:55:58.416Z,18.50
2019-05-20T09:57:59.856Z,18.50
2019-05-20T10:00:04.626Z,18.40
2019-05-20T10:02:08.361Z,18.30
2019-05-20T10:04:10.036Z,18.10
2019-05-20T10:06:11.753Z,18.20
2019-05-20T10:08:13.549Z,18.50
2019-05-20T10:10:15.945Z,18.70
2019-05-20T10:12:18.045Z,18.80
2019-05-20T10:14:19.991Z,18.80
2019-05-20T10:16:21.849Z,19.10
2019-05-20T10:18:36.627Z,19.50
2019-05-20T10:20:27.648Z,18.80
2019-05-20T10:22:29.347Z,18.70
2019-05-20T10:24:30.708Z,18.70
2019-05-20T10:26:32.079Z,19.10
2019-05-20T10:28:33.349Z,19.40
2019-05-20T10:30:34.994Z,19.70
2019-05-20T10:32:36.378Z,20.10
2019-05-20T10:34:38.015Z,20.10
2019-05-20T10:36:39.179Z,19.30
2019-05-20T10:38:56.788Z,19.00
2019-05-20T10:40:44.012Z,19.10
2019-05-20T10:42:45.560Z,19.40
2019-05-20T10:44:46.798Z,19.70
2019-05-20T10:46:48.077Z,20.00
2019-05-20T10:48:49.405Z,20.10
2019-05-20T10:50:50.718Z,19.70
2019-05-20T10:52:52.015Z,20.00
2019-05-20T10:54:54.388Z,20.40
2019-05-20T10:56:59.149Z,20.10
2019-05-20T10:58:59.128Z,20.00
2019-05-20T11:01:02.977Z,19.90
2019-05-20T11:03:03.760Z,19.50
2019-05-20T11:05:05.742Z,19.70
2019-05-20T11:07:07.125Z,20.10
2019-05-20T11:09:14.189Z,20.60
2019-05-20T11:11:14.331Z,20.90
2019-05-20T11:13:14.860Z,20.20
2019-05-20T11:15:16.864Z,20.30
2019-05-20T11:17:18.652Z,20.50
2019-05-20T11:19:21.082Z,20.90
2019-05-20T11:21:22.638Z,21.50
2019-05-20T11:23:23.944Z,21.90
2019-05-20T11:25:25.322Z,22.30
2019-05-20T11:27:26.613Z,22.70
2019-05-20T11:29:28.148Z,23.20
2019-05-20T11:31:29.623Z,23.60
2019-05-20T11:33:31.006Z,23.60
2019-05-20T11:35:32.411Z,23.00
2019-05-20T11:37:34.251Z,22.60
2019-05-20T11:39:35.896Z,22.30
2019-05-20T11:41:52.656Z,22.10
2019-05-20T11:43:40.549Z,21.80
2019-05-20T11:45:42.498Z,22.40
2019-05-20T11:47:43.684Z,22.70
2019-05-20T11:49:45.439Z,23.10
2019-05-20T11:51:46.830Z,23.70
2019-05-20T11:53:48.390Z,23.40
2019-05-20T11:55:49.745Z,23.90
2019-05-20T11:57:51.123Z,23.10
2019-05-20T11:59:52.463Z,23.30
2019-05-20T12:01:54.026Z,23.40
2019-05-20T12:03:55.696Z,23.80
2019-05-20T12:05:57.017Z,24.10
2019-05-20T12:07:58.682Z,24.80
2019-05-20T12:10:00.043Z,25.20
2019-05-20T12:12:01.438Z,25.40
2019-05-20T12:14:02.794Z,24.90
2019-05-20T12:16:04.267Z,24.40
2019-05-20T12:18:05.954Z,24.30
2019-05-20T12:20:08.918Z,23.20
2019-05-20T12:22:11.117Z,23.40
2019-05-20T12:24:12.410Z,23.90
2019-05-20T12:26:15.116Z,24.50
2019-05-20T12:28:16.783Z,25.10
2019-05-20T12:30:19.144Z,25.00
2019-05-20T12:32:20.501Z,23.40
2019-05-20T12:34:21.834Z,23.40
2019-05-20T12:36:23.082Z,23.90
2019-05-20T12:38:24.394Z,24.80
2019-05-20T12:40:25.807Z,25.00
2019-05-20T12:42:27.315Z,25.40
2019-05-20T12:44:29.890Z,25.20
2019-05-20T12:46:31.258Z,24.80
2019-05-20T12:48:32.537Z,24.60
2019-05-20T12:50:34.158Z,24.00
2019-05-20T12:52:35.413Z,23.90
2019-05-20T12:54:36.691Z,23.20
2019-05-20T12:56:38.010Z,23.40
2019-05-20T12:58:39.843Z,23.50
2019-05-20T13:00:41.208Z,23.70
2019-05-20T13:02:42.602Z,24.20
2019-05-20T13:04:43.952Z,24.30
2019-05-20T13:06:45.381Z,23.70
2019-05-20T13:08:46.735Z,24.20
2019-05-20T13:10:48.625Z,24.30
2019-05-20T13:12:50.701Z,25.00
2019-05-20T13:14:52.155Z,24.90
2019-05-20T13:16:53.503Z,24.90
2019-05-20T13:18:56.472Z,25.10
2019-05-20T13:20:58.998Z,24.60
2019-05-20T13:23:00.467Z,24.90
2019-05-20T13:25:02.050Z,25.30
2019-05-20T13:27:03.523Z,25.50
2019-05-20T13:29:04.790Z,26.00
2019-05-20T13:31:07.250Z,25.50
2019-05-20T13:33:08.528Z,25.90
2019-05-20T13:35:10.300Z,26.70
2019-05-20T13:37:11.475Z,27.40
2019-05-20T13:39:13.131Z,26.80
2019-05-20T13:41:14.400Z,26.50
2019-05-20T13:43:15.715Z,26.00
2019-05-20T13:45:17.082Z,24.60
2019-05-20T13:47:18.355Z,24.40
2019-05-20T13:49:19.635Z,24.30
2019-05-20T13:51:20.919Z,24.20
2019-05-20T13:53:22.212Z,24.70
2019-05-20T13:55:23.729Z,25.10
2019-05-20T13:57:24.886Z,25.40
2019-05-20T13:59:26.213Z,24.80
2019-05-20T14:01:27.437Z,24.70
2019-05-20T14:03:28.751Z,24.80
2019-05-20T14:05:30.335Z,24.80
2019-05-20T14:07:31.638Z,24.30
2019-05-20T14:09:32.930Z,24.10
2019-05-20T14:11:35.049Z,24.70
2019-05-20T14:13:36.446Z,24.80
2019-05-20T14:15:38.025Z,24.20
2019-05-20T14:17:39.431Z,24.50
2019-05-20T14:19:40.718Z,24.90
2019-05-20T14:21:42.059Z,25.00
2019-05-20T14:23:43.289Z,25.80
2019-05-20T14:25:44.593Z,25.20
2019-05-20T14:27:45.879Z,25.70
2019-05-20T14:29:47.150Z,25.40
2019-05-20T14:31:48.513Z,25.70
2019-05-20T14:33:49.768Z,26.50
2019-05-20T14:35:51.018Z,27.00
2019-05-20T14:37:53.226Z,27.60
2019-05-20T14:39:54.716Z,27.60
2019-05-20T14:41:55.966Z,27.00
2019-05-20T14:43:57.296Z,27.10
2019-05-20T14:45:58.677Z,25.70
2019-05-20T14:47:59.920Z,26.60
2019-05-20T14:50:01.304Z,26.50
2019-05-20T14:52:02.765Z,26.50
2019-05-20T14:54:04.369Z,25.80
2019-05-20T14:56:05.738Z,25.30
2019-05-20T14:58:06.905Z,25.50
2019-05-20T15:00:08.789Z,25.40
2019-05-20T15:02:10.202Z,25.70
2019-05-20T15:04:11.450Z,25.70
2019-05-20T15:06:12.726Z,26.20
2019-05-20T15:08:14.255Z,26.60
2019-05-20T15:10:15.879Z,27.00
2019-05-20T15:12:17.040Z,27.00
2019-05-20T15:14:18.474Z,26.10
2019-05-20T15:16:19.629Z,25.50
2019-05-20T15:18:20.781Z,25.90
2019-05-20T15:20:22.046Z,25.60
2019-05-20T15:22:23.218Z,26.00
2019-05-20T15:24:24.791Z,25.80
2019-05-20T15:26:26.122Z,26.00
2019-05-20T15:28:27.389Z,26.20
2019-05-20T15:30:28.911Z,25.30
2019-05-20T15:32:30.426Z,24.80
2019-05-20T15:34:31.936Z,24.40
2019-05-20T15:36:33.282Z,24.50
2019-05-20T15:38:34.721Z,24.90
2019-05-20T15:40:36.018Z,25.10
2019-05-20T15:42:37.233Z,24.90
2019-05-20T15:44:38.638Z,24.50
2019-05-20T15:46:39.919Z,24.00
2019-05-20T15:48:41.223Z,23.80
2019-05-20T15:50:42.587Z,24.00
2019-05-20T15:52:44.020Z,24.30
2019-05-20T15:54:45.265Z,24.30
2019-05-20T15:56:46.590Z,24.30
2019-05-20T15:58:47.927Z,24.50
2019-05-20T16:00:49.448Z,24.20
2019-05-20T16:02:50.867Z,23.20
2019-05-20T16:04:52.034Z,23.30
2019-05-20T16:06:54.039Z,23.00
2019-05-20T16:08:55.422Z,23.10
2019-05-20T16:10:56.611Z,23.10
2019-05-20T16:12:57.979Z,23.10
2019-05-20T16:14:59.166Z,22.80
2019-05-20T16:17:00.450Z,22.80
2019-05-20T16:19:01.738Z,22.30
2019-05-20T16:21:04.347Z,22.10
2019-05-20T16:23:05.634Z,21.50
2019-05-20T16:25:07.275Z,21.10
2019-05-20T16:27:08.586Z,20.90
2019-05-20T16:29:10.165Z,20.90
2019-05-20T16:31:11.324Z,20.70
2019-05-20T16:33:12.670Z,20.60
2019-05-20T16:35:14.093Z,20.30
2019-05-20T16:37:15.366Z,20.10
2019-05-20T16:39:16.654Z,19.70
2019-05-20T16:41:18.010Z,19.60
2019-05-20T16:43:19.492Z,19.40
2019-05-20T16:45:20.749Z,19.10
2019-05-20T16:47:22.099Z,19.00
2019-05-20T16:49:23.396Z,19.00
2019-05-20T16:51:24.968Z,18.90
2019-05-20T16:53:26.143Z,18.90
2019-05-20T16:55:27.511Z,19.00
2019-05-20T16:57:28.924Z,19.40
2019-05-20T16:59:30.271Z,19.50
2019-05-20T17:01:45.313Z,19.10
2019-05-20T17:03:36.891Z,18.20
2019-05-20T17:05:38.901Z,17.80
2019-05-20T17:07:40.223Z,17.80
2019-05-20T17:09:42.729Z,18.10
2019-05-20T17:11:45.107Z,18.20
2019-05-20T17:13:46.450Z,18.60
2019-05-20T17:15:47.847Z,19.10
2019-05-20T17:17:49.467Z,19.50
2019-05-20T17:19:50.754Z,19.80
2019-05-20T17:21:53.135Z,19.50
2019-05-20T17:23:55.411Z,19.10
2019-05-20T17:25:56.696Z,18.80
2019-05-20T17:27:59.003Z,18.70
2019-05-20T17:30:00.304Z,18.20
2019-05-20T17:32:01.797Z,17.90
2019-05-20T17:34:05.091Z,17.80
2019-05-20T17:36:06.773Z,17.70
2019-05-20T17:38:08.062Z,17.60
2019-05-20T17:40:10.208Z,17.70
2019-05-20T17:42:11.617Z,17.80
2019-05-20T17:44:14.967Z,17.80
2019-05-20T17:46:16.401Z,17.70
2019-05-20T17:48:17.842Z,17.50
2019-05-20T17:50:19.492Z,17.60
2019-05-20T17:52:20.729Z,17.70
2019-05-20T17:54:22.151Z,17.70
2019-05-20T17:56:23.417Z,17.80
2019-05-20T17:58:25.141Z,17.90
2019-05-20T18:00:26.644Z,17.90
2019-05-20T18:02:27.935Z,18.10
2019-05-20T18:04:29.278Z,18.00
2019-05-20T18:06:30.698Z,18.00
2019-05-20T18:08:33.860Z,17.90
2019-05-20T18:10:35.180Z,17.80
2019-05-20T18:12:36.535Z,18.10
2019-05-20T18:14:41.087Z,18.10
2019-05-20T18:16:42.371Z,18.00
2019-05-20T18:18:45.019Z,18.10
2019-05-20T18:20:47.510Z,18.00
2019-05-20T18:22:48.838Z,18.00
2019-05-20T18:24:50.128Z,18.10
2019-05-20T18:26:51.407Z,18.20
2019-05-20T18:28:52.682Z,18.50
2019-05-20T18:30:53.967Z,18.60
2019-05-20T18:32:55.335Z,18.60
2019-05-20T18:34:56.732Z,18.60
2019-05-20T18:36:58.134Z,18.80
2019-05-20T18:38:59.403Z,18.70
2019-05-20T18:41:01.054Z,18.90
2019-05-20T18:43:02.323Z,18.60
2019-05-20T18:45:05.328Z,18.60
2019-05-20T18:47:06.707Z,18.60
2019-05-20T18:49:07.978Z,18.40
2019-05-20T18:51:09.487Z,18.50
2019-05-20T18:53:10.777Z,18.40
2019-05-20T18:55:12.157Z,18.40
2019-05-20T18:57:13.536Z,18.40
2019-05-20T18:59:14.902Z,18.50
2019-05-20T19:01:19.462Z,18.60
2019-05-20T19:03:20.247Z,18.40
2019-05-20T19:05:22.198Z,18.40
2019-05-20T19:07:23.405Z,18.40
2019-05-20T19:09:24.877Z,18.40
2019-05-20T19:11:26.274Z,18.60
2019-05-20T19:13:27.629Z,18.70
2019-05-20T19:15:29.272Z,18.60
2019-05-20T19:17:30.623Z,18.70
2019-05-20T19:19:32.030Z,18.50
2019-05-20T19:21:33.316Z,18.40
2019-05-20T19:23:35.673Z,18.30
2019-05-20T19:25:38.121Z,18.20
2019-05-20T19:27:39.844Z,18.20
2019-05-20T19:29:40.990Z,18.40
2019-05-20T19:31:42.281Z,18.30
2019-05-20T19:33:43.550Z,18.30
2019-05-20T19:35:44.814Z,18.30
2019-05-20T19:37:46.338Z,18.20
2019-05-20T19:39:47.617Z,18.40
2019-05-20T19:41:49.158Z,18.20
2019-05-20T19:43:50.802Z,18.20
2019-05-20T19:45:51.953Z,18.30
2019-05-20T19:47:53.503Z,18.20
2019-05-20T19:49:54.655Z,18.20
2019-05-20T19:51:55.931Z,18.20
2019-05-20T19:53:57.202Z,18.30
2019-05-20T19:55:58.494Z,18.20
2019-05-20T19:57:59.852Z,18.20
2019-05-20T20:00:01.938Z,18.10
2019-05-20T20:02:16.484Z,18.00
2019-05-20T20:04:07.570Z,18.00
2019-05-20T20:06:08.936Z,18.10
2019-05-20T20:08:10.464Z,18.10
2019-05-20T20:10:11.922Z,18.10
2019-05-20T20:12:13.255Z,18.10
2019-05-20T20:14:14.539Z,18.20
2019-05-20T20:16:18.082Z,18.10
2019-05-20T20:18:18.985Z,18.00
2019-05-20T20:20:20.512Z,18.00
2019-05-20T20:22:21.670Z,18.00
2019-05-20T20:24:23.025Z,17.80
2019-05-20T20:26:24.341Z,17.90
2019-05-20T20:28:26.697Z,17.90
2019-05-20T20:30:27.957Z,17.80
2019-05-20T20:32:37.814Z,17.90
2019-05-20T20:34:32.689Z,18.00
2019-05-20T20:36:33.954Z,17.90
2019-05-20T20:38:35.228Z,17.90
2019-05-20T20:40:36.498Z,17.90
2019-05-20T20:42:38.030Z,17.90
2019-05-20T20:44:40.417Z,18.00
2019-05-20T20:46:41.771Z,18.00
2019-05-20T20:48:43.080Z,17.80
2019-05-20T20:50:44.369Z,17.80
2019-05-20T20:52:46.039Z,17.70
2019-05-20T20:54:47.479Z,17.60
2019-05-20T20:56:48.766Z,17.50
2019-05-20T20:58:50.144Z,17.70
2019-05-20T21:00:51.414Z,17.60
2019-05-20T21:02:53.929Z,17.50
2019-05-20T21:04:55.401Z,17.50
2019-05-20T21:06:56.746Z,17.50
2019-05-20T21:08:58.050Z,17.40
2019-05-20T21:10:59.423Z,17.30
2019-05-20T21:13:00.723Z,17.40
2019-05-20T21:15:03.008Z,17.50
2019-05-20T21:17:06.081Z,17.40
2019-05-20T21:19:07.457Z,17.40
2019-05-20T21:21:08.960Z,17.40
2019-05-20T21:23:10.229Z,17.20
2019-05-20T21:25:11.498Z,17.30
2019-05-20T21:27:12.778Z,17.20
2019-05-20T21:29:14.385Z,17.20
2019-05-20T21:31:15.758Z,17.20
2019-05-20T21:33:17.054Z,17.20
2019-05-20T21:35:18.623Z,17.20
2019-05-20T21:37:19.789Z,17.30
2019-05-20T21:39:21.190Z,17.30
2019-05-20T21:41:22.466Z,17.30
2019-05-20T21:43:24.025Z,17.10
2019-05-20T21:45:25.566Z,17.10
2019-05-20T21:47:26.889Z,17.40
2019-05-20T21:49:28.182Z,17.30
2019-05-20T21:51:29.451Z,17.30
2019-05-20T21:53:30.991Z,17.20
2019-05-20T21:55:32.258Z,17.30
2019-05-20T21:57:33.728Z,17.30
2019-05-20T21:59:35.274Z,17.30
2019-05-20T22:01:36.918Z,17.20
2019-05-20T22:03:38.194Z,17.30
2019-05-20T22:05:39.613Z,17.20
2019-05-20T22:07:40.946Z,17.10
2019-05-20T22:09:42.422Z,17.10
2019-05-20T22:11:43.757Z,17.20
2019-05-20T22:13:45.100Z,17.20
2019-05-20T22:15:46.745Z,17.10
2019-05-20T22:17:49.130Z,17.20
2019-05-20T22:19:50.446Z,17.20
2019-05-20T22:21:56.539Z,17.20
2019-05-20T22:24:02.520Z,17.30
2019-05-20T22:26:03.796Z,17.20
2019-05-20T22:28:05.075Z,17.30
2019-05-20T22:30:07.170Z,17.10
2019-05-20T22:32:08.462Z,17.10
2019-05-20T22:34:09.841Z,17.10
2019-05-20T22:36:11.203Z,16.90
2019-05-20T22:38:12.624Z,16.70
2019-05-20T22:40:14.177Z,16.60
2019-05-20T22:42:15.340Z,16.70
2019-05-20T22:44:16.718Z,16.50
2019-05-20T22:46:18.339Z,16.70
2019-05-20T22:48:19.626Z,16.60
2019-05-20T22:50:21.159Z,16.50
2019-05-20T22:52:22.675Z,16.40
2019-05-20T22:54:23.970Z,16.30
2019-05-20T22:56:25.268Z,16.40
2019-05-20T22:58:26.545Z,16.30
2019-05-20T23:00:27.827Z,16.50
2019-05-20T23:02:29.393Z,16.40
2019-05-20T23:04:31.017Z,16.30
2019-05-20T23:06:32.395Z,16.30
2019-05-20T23:08:33.811Z,16.10
2019-05-20T23:10:35.143Z,16.00
2019-05-20T23:12:36.429Z,16.10
2019-05-20T23:14:37.810Z,16.10
2019-05-20T23:16:39.079Z,16.30
2019-05-20T23:18:40.361Z,16.30
2019-05-20T23:20:42.049Z,16.20
2019-05-20T23:22:43.426Z,16.20
2019-05-20T23:24:44.726Z,16.00
2019-05-20T23:26:46.007Z,16.10
2019-05-20T23:28:47.328Z,16.00
2019-05-20T23:30:48.970Z,16.10
2019-05-20T23:32:50.142Z,16.00
2019-05-20T23:34:51.427Z,16.00
2019-05-20T23:36:52.701Z,15.90
2019-05-20T23:38:53.970Z,15.80
2019-05-20T23:40:55.259Z,15.70
2019-05-20T23:42:56.547Z,15.80
2019-05-20T23:44:57.849Z,15.80
2019-05-20T23:46:59.400Z,15.80
2019-05-20T23:49:00.970Z,15.80
2019-05-20T23:51:02.323Z,15.70
2019-05-20T23:53:03.614Z,15.60
2019-05-20T23:55:06.734Z,15.50
2019-05-20T23:57:08.037Z,15.60
2019-05-20T23:59:09.443Z,15.70
